Axtell, UT

11:21 AM MDT on April 01, 2015 (GMT -0600)
Redmond Town | | Change Station
CLOSE
Current Station
Personal Weather Station
Location: Redmond, UT
Elevation: 5115 ft
Nearby Weather Stations

Elev 5115 ft 39.01 °N, 111.86 °W | Updated 24 seconds ago

Clear
Clear
53.8 °F
Feels Like 53.8 °F
N
11.9
Wind Variable Wind from NNE
Gusts 12.5 mph

Today
High -- | Low -- °F
--% Chance of Precip.
Yesterday
High -- | Low -- °F
Precip. -- in
7:11 AM 7:50 PM
Waxing Gibbous, 93% visible
Pressure 29.96 in
Visibility 10.0 miles
Clouds Clear
Dew Point 24 °F
Humidity 31%
Rainfall 0.00 in
Snow Depth Not available.
UV 6 out of 12
Pollen 9.30 out of 12
Air Quality Not available.
Flu Activity Not available.
METAR KPUC 011653Z AUTO 30015G26KT 10SM CLR 09/M10 A3002 RMK AO2 PK WND 33031/1612 SLP146 T00941100

More Conditions Fewer Conditions

Pressure 29.96 in
Visibility 10.0 miles
Clouds Clear
Dew Point 24 °F
Humidity 31%
Rainfall 0.00 in
Snow Depth Not available.
UV 6 out of 12
Pollen 9.30 out of 12
Air Quality Not available.
Flu Activity Not available.
METAR KPUC 011653Z AUTO 30015G26KT 10SM CLR 09/M10 A3002 RMK AO2 PK WND 33031/1612 SLP146 T00941100

More Conditions Fewer Conditions

10-Day Weather Forecast

Almanac

Astronomy

Apr. 01, 2015 Rise Set
Actual Time
Civil Twilight
Nautical Twilight
Astronomical Twilight
Moon
Length of Visible Light
Length of Day
Tomorrow will be .
, % of the Moon is Illuminated

Today's Extremes

State Highs State Lows

Community

WunderPhotos

Upload Photos

1,810,011 photos uploaded!

WunderBlogs® & News

Nearby

Air Quality

  Air Quality AQ Index Pollutant
Not available.

Snow Depth

Station Depth Elevation

Earthquake Activity

City Distance Mag. Time & Date
Minimum magnitude displayed is 2.5.

Coastal Water Temperatures

Place Temperature

Stations

Nearby Weather Stations

Station Location Temp. Windchill Dew Point Humidity Wind Precip. Elev Updated Type